Terminal Aerodrome Forecast
Issued by NWS

Home | Current Version | Previous Version | Text Only | Print | Product List | Glossary On
Versions: 1 2 3 4 5 6 7 8 9 10 11 12
044
FTUS42 KMLB 191123
TAFISM
TAF
KISM 191123Z 1912/2012 34005KT P6SM BKN250
     FM191600 VRB04KT P6SM BKN250
     FM200100 VRB03KT P6SM SCT150 BKN200=

USA.gov is the U.S. government's official web portal to all federal, state and local government web resources and services.